Terminal Aerodrome Forecast
Issued by NWS

Home | Current Version | Previous Version | Text Only | Print | Product List | Glossary On
Versions: 1 2 3 4 5 6 7 8 9 10 11 12 13 14 15 16
000
FTUS42 KTBW 200209 AAA
TAFPGD
TAF AMD
KPGD 200209Z 2002/2024 33010KT P6SM SCT010 BKN060
      TEMPO 2002/2004 BKN010
     FM200400 01011G16KT P6SM FEW150 SCT250
     FM201500 05011G16KT P6SM FEW250
     FM202200 08011G16KT P6SM BKN040=

USA.gov is the U.S. government's official web portal to all federal, state and local government web resources and services.